sensor_id;sensor_type;location;lat;lon;timestamp;temperature;humidity
7461;DHT22;6757;52.258;12.840;2024-03-23T00:55:47;8.10;99.90
7461;DHT22;6757;52.258;12.840;2024-03-23T00:58:13;7.40;99.90
7461;DHT22;6757;52.258;12.840;2024-03-23T01:00:41;7.50;99.90
7461;DHT22;6757;52.258;12.840;2024-03-23T01:03:07;7.50;99.90
7461;DHT22;6757;52.258;12.840;2024-03-23T01:05:33;7.40;99.90
7461;DHT22;6757;52.258;12.840;2024-03-23T01:07:59;7.40;99.90
7461;DHT22;6757;52.258;12.840;2024-03-23T01:10:26;7.50;99.90
7461;DHT22;6757;52.258;12.840;2024-03-23T01:12:51;7.50;99.90
7461;DHT22;6757;52.258;12.840;2024-03-23T01:15:18;7.50;99.90
7461;DHT22;6757;52.258;12.840;2024-03-23T01:17:45;7.40;99.90
7461;DHT22;6757;52.258;12.840;2024-03-23T01:20:12;7.50;99.90
7461;DHT22;6757;52.258;12.840;2024-03-23T01:22:38;7.40;99.90
7461;DHT22;6757;52.258;12.840;2024-03-23T01:25:05;8.70;99.90
7461;DHT22;6757;52.258;12.840;2024-03-23T01:27:31;7.40;99.90
7461;DHT22;6757;52.258;12.840;2024-03-23T01:29:58;6.20;99.90
7461;DHT22;6757;52.258;12.840;2024-03-23T01:32:24;7.30;99.90
7461;DHT22;6757;52.258;12.840;2024-03-23T01:34:51;7.30;99.90
7461;DHT22;6757;52.258;12.840;2024-03-23T01:37:17;7.20;99.90
7461;DHT22;6757;52.258;12.840;2024-03-23T01:39:44;7.30;99.90
7461;DHT22;6757;52.258;12.840;2024-03-23T01:42:10;7.20;99.90
7461;DHT22;6757;52.258;12.840;2024-03-23T01:44:36;7.20;99.90
7461;DHT22;6757;52.258;12.840;2024-03-23T01:47:03;7.20;99.90
7461;DHT22;6757;52.258;12.840;2024-03-23T01:49:30;7.20;99.90
7461;DHT22;6757;52.258;12.840;2024-03-23T01:51:57;7.20;99.90
7461;DHT22;6757;52.258;12.840;2024-03-23T01:54:25;7.20;99.90
7461;DHT22;6757;52.258;12.840;2024-03-23T01:56:51;7.20;99.90
7461;DHT22;6757;52.258;12.840;2024-03-23T01:59:18;7.20;99.90
7461;DHT22;6757;52.258;12.840;2024-03-23T02:01:44;7.20;99.90
7461;DHT22;6757;52.258;12.840;2024-03-23T02:04:11;6.40;99.90
7461;DHT22;6757;52.258;12.840;2024-03-23T02:06:36;7.20;99.90
7461;DHT22;6757;52.258;12.840;2024-03-23T02:09:04;7.20;99.90
7461;DHT22;6757;52.258;12.840;2024-03-23T02:11:31;7.90;99.90
7461;DHT22;6757;52.258;12.840;2024-03-23T02:13:57;7.20;99.90
7461;DHT22;6757;52.258;12.840;2024-03-23T02:16:23;7.20;99.90
7461;DHT22;6757;52.258;12.840;2024-03-23T02:18:50;7.10;99.90
7461;DHT22;6757;52.258;12.840;2024-03-23T02:21:15;7.10;99.90
7461;DHT22;6757;52.258;12.840;2024-03-23T02:23:43;7.10;99.90
7461;DHT22;6757;52.258;12.840;2024-03-23T02:26:09;6.80;99.90
7461;DHT22;6757;52.258;12.840;2024-03-23T02:28:36;7.10;99.90
7461;DHT22;6757;52.258;12.840;2024-03-23T02:31:02;7.10;99.90
7461;DHT22;6757;52.258;12.840;2024-03-23T02:33:29;7.10;99.90
7461;DHT22;6757;52.258;12.840;2024-03-23T02:35:56;7.10;99.90
7461;DHT22;6757;52.258;12.840;2024-03-23T02:38:23;7.10;99.90
7461;DHT22;6757;52.258;12.840;2024-03-23T02:40:50;7.10;99.90
7461;DHT22;6757;52.258;12.840;2024-03-23T02:43:17;7.00;99.90
7461;DHT22;6757;52.258;12.840;2024-03-23T02:45:43;7.00;99.90
7461;DHT22;6757;52.258;12.840;2024-03-23T02:48:09;7.10;99.90
7461;DHT22;6757;52.258;12.840;2024-03-23T02:50:35;7.00;99.90
7461;DHT22;6757;52.258;12.840;2024-03-23T02:53:02;6.90;99.90
7461;DHT22;6757;52.258;12.840;2024-03-23T02:55:28;7.10;99.90
7461;DHT22;6757;52.258;12.840;2024-03-23T02:57:56;7.10;99.90
7461;DHT22;6757;52.258;12.840;2024-03-23T03:00:21;7.10;99.90
7461;DHT22;6757;52.258;12.840;2024-03-23T03:02:48;7.00;99.90
7461;DHT22;6757;52.258;12.840;2024-03-23T03:05:14;7.00;99.90
7461;DHT22;6757;52.258;12.840;2024-03-23T03:07:40;7.60;99.90
7461;DHT22;6757;52.258;12.840;2024-03-23T03:10:06;6.90;99.90
7461;DHT22;6757;52.258;12.840;2024-03-23T03:12:36;7.10;99.90
7461;DHT22;6757;52.258;12.840;2024-03-23T03:15:04;7.00;99.90
7461;DHT22;6757;52.258;12.840;2024-03-23T03:17:32;7.00;99.90
7461;DHT22;6757;52.258;12.840;2024-03-23T03:19:57;7.00;99.90
7461;DHT22;6757;52.258;12.840;2024-03-23T03:22:25;7.00;99.90
7461;DHT22;6757;52.258;12.840;2024-03-23T03:24:50;7.00;99.90
7461;DHT22;6757;52.258;12.840;2024-03-23T03:27:17;7.00;99.90
7461;DHT22;6757;52.258;12.840;2024-03-23T03:29:43;7.00;99.90
7461;DHT22;6757;52.258;12.840;2024-03-23T03:32:11;6.90;99.90
7461;DHT22;6757;52.258;12.840;2024-03-23T03:34:37;7.00;99.90
7461;DHT22;6757;52.258;12.840;2024-03-23T03:37:04;7.10;99.90
7461;DHT22;6757;52.258;12.840;2024-03-23T03:39:30;7.00;99.90
7461;DHT22;6757;52.258;12.840;2024-03-23T03:41:56;7.10;99.90
7461;DHT22;6757;52.258;12.840;2024-03-23T03:44:22;7.10;99.90
7461;DHT22;6757;52.258;12.840;2024-03-23T03:46:50;6.00;99.90
7461;DHT22;6757;52.258;12.840;2024-03-23T03:49:17;7.10;99.90
7461;DHT22;6757;52.258;12.840;2024-03-23T03:51:45;7.10;99.90
7461;DHT22;6757;52.258;12.840;2024-03-23T03:54:10;7.10;99.90
7461;DHT22;6757;52.258;12.840;2024-03-23T03:56:37;7.10;99.90
7461;DHT22;6757;52.258;12.840;2024-03-23T03:59:03;7.10;99.90
7461;DHT22;6757;52.258;12.840;2024-03-23T04:01:30;7.10;99.90
7461;DHT22;6757;52.258;12.840;2024-03-23T04:03:55;7.00;99.90
7461;DHT22;6757;52.258;12.840;2024-03-23T04:06:23;6.90;99.90
7461;DHT22;6757;52.258;12.840;2024-03-23T04:08:49;7.00;99.90
7461;DHT22;6757;52.258;12.840;2024-03-23T04:11:16;7.00;99.90
7461;DHT22;6757;52.258;12.840;2024-03-23T04:13:41;7.00;99.90
7461;DHT22;6757;52.258;12.840;2024-03-23T04:16:08;7.10;99.90
7461;DHT22;6757;52.258;12.840;2024-03-23T04:18:34;7.00;99.90
7461;DHT22;6757;52.258;12.840;2024-03-23T04:21:01;7.00;99.90
7461;DHT22;6757;52.258;12.840;2024-03-23T04:23:28;6.90;99.90
7461;DHT22;6757;52.258;12.840;2024-03-23T04:25:55;6.90;99.90
7461;DHT22;6757;52.258;12.840;2024-03-23T04:28:21;6.90;99.90
7461;DHT22;6757;52.258;12.840;2024-03-23T04:30:47;6.90;99.90
7461;DHT22;6757;52.258;12.840;2024-03-23T04:33:14;6.90;99.90
7461;DHT22;6757;52.258;12.840;2024-03-23T04:35:41;6.90;99.90
7461;DHT22;6757;52.258;12.840;2024-03-23T04:38:06;6.90;99.90
7461;DHT22;6757;52.258;12.840;2024-03-23T04:40:35;6.70;99.90
7461;DHT22;6757;52.258;12.840;2024-03-23T04:43:02;8.00;99.90
7461;DHT22;6757;52.258;12.840;2024-03-23T04:45:29;6.80;99.90
7461;DHT22;6757;52.258;12.840;2024-03-23T04:47:56;6.80;99.90
7461;DHT22;6757;52.258;12.840;2024-03-23T04:50:23;6.90;99.90
7461;DHT22;6757;52.258;12.840;2024-03-23T04:52:49;6.70;99.90
7461;DHT22;6757;52.258;12.840;2024-03-23T04:55:16;6.70;99.90
7461;DHT22;6757;52.258;12.840;2024-03-23T04:57:44;6.30;99.90
7461;DHT22;6757;52.258;12.840;2024-03-23T05:00:11;6.80;99.90
7461;DHT22;6757;52.258;12.840;2024-03-23T05:02:44;6.70;99.90
7461;DHT22;6757;52.258;12.840;2024-03-23T05:05:10;6.70;99.90
7461;DHT22;6757;52.258;12.840;2024-03-23T05:07:37;6.70;99.90
7461;DHT22;6757;52.258;12.840;2024-03-23T05:10:03;6.70;99.90
7461;DHT22;6757;52.258;12.840;2024-03-23T05:12:30;6.70;99.90
7461;DHT22;6757;52.258;12.840;2024-03-23T05:14:58;6.70;99.90
7461;DHT22;6757;52.258;12.840;2024-03-23T05:17:24;6.70;99.90
7461;DHT22;6757;52.258;12.840;2024-03-23T05:19:50;6.70;99.90
7461;DHT22;6757;52.258;12.840;2024-03-23T05:22:17;6.70;99.90
7461;DHT22;6757;52.258;12.840;2024-03-23T05:24:44;6.70;99.90
7461;DHT22;6757;52.258;12.840;2024-03-23T05:27:12;6.70;99.90
7461;DHT22;6757;52.258;12.840;2024-03-23T05:29:37;6.80;99.90
7461;DHT22;6757;52.258;12.840;2024-03-23T05:32:06;6.50;99.90
7461;DHT22;6757;52.258;12.840;2024-03-23T05:34:32;6.60;99.90
7461;DHT22;6757;52.258;12.840;2024-03-23T05:36:59;6.60;99.90
7461;DHT22;6757;52.258;12.840;2024-03-23T05:39:24;7.80;99.90
7461;DHT22;6757;52.258;12.840;2024-03-23T05:41:51;6.60;99.90
7461;DHT22;6757;52.258;12.840;2024-03-23T05:44:17;6.60;99.90
7461;DHT22;6757;52.258;12.840;2024-03-23T05:46:43;6.60;99.90
7461;DHT22;6757;52.258;12.840;2024-03-23T05:49:15;6.50;99.90
7461;DHT22;6757;52.258;12.840;2024-03-23T05:51:43;6.50;99.90
7461;DHT22;6757;52.258;12.840;2024-03-23T05:54:09;6.50;99.90
7461;DHT22;6757;52.258;12.840;2024-03-23T05:56:36;6.50;99.90
7461;DHT22;6757;52.258;12.840;2024-03-23T05:59:01;6.50;99.90
7461;DHT22;6757;52.258;12.840;2024-03-23T06:01:29;6.50;99.90
7461;DHT22;6757;52.258;12.840;2024-03-23T06:03:58;6.60;99.90
7461;DHT22;6757;52.258;12.840;2024-03-23T06:06:27;6.60;99.90
7461;DHT22;6757;52.258;12.840;2024-03-23T06:08:55;6.50;99.90
7461;DHT22;6757;52.258;12.840;2024-03-23T06:11:22;5.60;99.90
7461;DHT22;6757;52.258;12.840;2024-03-23T06:13:48;6.50;99.90
7461;DHT22;6757;52.258;12.840;2024-03-23T06:16:14;6.40;99.90
7461;DHT22;6757;52.258;12.840;2024-03-23T06:18:40;6.40;99.90
7461;DHT22;6757;52.258;12.840;2024-03-23T06:21:13;6.50;99.90
7461;DHT22;6757;52.258;12.840;2024-03-23T06:23:40;6.30;99.90
7461;DHT22;6757;52.258;12.840;2024-03-23T06:26:08;6.40;99.90
7461;DHT22;6757;52.258;12.840;2024-03-23T06:28:34;6.40;99.90
7461;DHT22;6757;52.258;12.840;2024-03-23T06:31:01;6.50;99.90
7461;DHT22;6757;52.258;12.840;2024-03-23T06:33:27;6.50;99.90
7461;DHT22;6757;52.258;12.840;2024-03-23T06:35:54;6.50;99.90
7461;DHT22;6757;52.258;12.840;2024-03-23T06:38:20;6.50;99.90
7461;DHT22;6757;52.258;12.840;2024-03-23T06:40:48;6.50;99.90
7461;DHT22;6757;52.258;12.840;2024-03-23T06:43:16;6.50;99.90
7461;DHT22;6757;52.258;12.840;2024-03-23T06:45:43;6.50;99.90
7461;DHT22;6757;52.258;12.840;2024-03-23T06:48:08;6.60;99.90
7461;DHT22;6757;52.258;12.840;2024-03-23T06:50:35;6.60;99.90
7461;DHT22;6757;52.258;12.840;2024-03-23T06:53:02;6.60;99.90
7461;DHT22;6757;52.258;12.840;2024-03-23T06:55:27;6.60;99.90
7461;DHT22;6757;52.258;12.840;2024-03-23T06:57:55;7.00;99.90
7461;DHT22;6757;52.258;12.840;2024-03-23T07:00:21;6.50;99.90
7461;DHT22;6757;52.258;12.840;2024-03-23T07:02:48;6.50;99.90
7461;DHT22;6757;52.258;12.840;2024-03-23T07:05:14;6.50;99.90
7461;DHT22;6757;52.258;12.840;2024-03-23T07:07:41;6.40;99.90
7461;DHT22;6757;52.258;12.840;2024-03-23T07:10:07;6.50;99.90
7461;DHT22;6757;52.258;12.840;2024-03-23T07:12:34;6.50;99.90
7461;DHT22;6757;52.258;12.840;2024-03-23T07:15:01;6.50;99.90
7461;DHT22;6757;52.258;12.840;2024-03-23T07:17:27;6.50;99.90
7461;DHT22;6757;52.258;12.840;2024-03-23T07:19:53;6.60;99.90
7461;DHT22;6757;52.258;12.840;2024-03-23T07:22:20;6.50;99.90
7461;DHT22;6757;52.258;12.840;2024-03-23T07:24:46;6.50;99.90
7461;DHT22;6757;52.258;12.840;2024-03-23T07:27:12;6.40;99.90
7461;DHT22;6757;52.258;12.840;2024-03-23T07:29:38;6.50;99.90
7461;DHT22;6757;52.258;12.840;2024-03-23T07:32:06;6.20;99.90
7461;DHT22;6757;52.258;12.840;2024-03-23T07:34:32;6.10;99.90
7461;DHT22;6757;52.258;12.840;2024-03-23T07:37:00;6.50;99.90
7461;DHT22;6757;52.258;12.840;2024-03-23T07:39:25;6.40;99.90
7461;DHT22;6757;52.258;12.840;2024-03-23T07:41:53;6.40;99.90
7461;DHT22;6757;52.258;12.840;2024-03-23T07:44:20;6.40;99.90
7461;DHT22;6757;52.258;12.840;2024-03-23T07:46:46;6.40;99.90
7461;DHT22;6757;52.258;12.840;2024-03-23T07:49:13;5.20;99.90
7461;DHT22;6757;52.258;12.840;2024-03-23T07:51:40;6.20;99.90
7461;DHT22;6757;52.258;12.840;2024-03-23T07:54:06;6.40;99.90
7461;DHT22;6757;52.258;12.840;2024-03-23T07:56:33;6.30;99.90
7461;DHT22;6757;52.258;12.840;2024-03-23T07:58:59;6.30;99.90
7461;DHT22;6757;52.258;12.840;2024-03-23T08:01:28;6.40;99.90
7461;DHT22;6757;52.258;12.840;2024-03-23T08:03:54;6.40;99.90
7461;DHT22;6757;52.258;12.840;2024-03-23T08:06:23;6.40;99.90
7461;DHT22;6757;52.258;12.840;2024-03-23T08:08:51;6.40;99.90
7461;DHT22;6757;52.258;12.840;2024-03-23T08:11:25;6.30;99.90
7461;DHT22;6757;52.258;12.840;2024-03-23T08:13:50;6.20;99.90
7461;DHT22;6757;52.258;12.840;2024-03-23T08:16:17;6.10;99.90
7461;DHT22;6757;52.258;12.840;2024-03-23T08:18:43;6.10;99.90
7461;DHT22;6757;52.258;12.840;2024-03-23T08:21:10;6.10;99.90
7461;DHT22;6757;52.258;12.840;2024-03-23T08:23:37;6.00;99.90
7461;DHT22;6757;52.258;12.840;2024-03-23T08:26:05;5.90;99.90
7461;DHT22;6757;52.258;12.840;2024-03-23T08:28:33;5.60;99.90
7461;DHT22;6757;52.258;12.840;2024-03-23T08:31:02;5.90;99.90
7461;DHT22;6757;52.258;12.840;2024-03-23T08:33:30;5.90;99.90
7461;DHT22;6757;52.258;12.840;2024-03-23T08:35:59;5.80;99.90
7461;DHT22;6757;52.258;12.840;2024-03-23T08:38:26;5.70;99.90
7461;DHT22;6757;52.258;12.840;2024-03-23T08:40:58;5.70;99.90
7461;DHT22;6757;52.258;12.840;2024-03-23T08:43:25;5.60;99.90
7461;DHT22;6757;52.258;12.840;2024-03-23T08:45:51;5.80;99.90
7461;DHT22;6757;52.258;12.840;2024-03-23T08:48:18;5.60;99.90
7461;DHT22;6757;52.258;12.840;2024-03-23T08:50:46;5.40;99.90
7461;DHT22;6757;52.258;12.840;2024-03-23T08:53:11;5.50;99.90
7461;DHT22;6757;52.258;12.840;2024-03-23T08:55:38;5.40;99.90
7461;DHT22;6757;52.258;12.840;2024-03-23T08:58:05;5.40;99.90
7461;DHT22;6757;52.258;12.840;2024-03-23T09:00:33;5.40;99.90
7461;DHT22;6757;52.258;12.840;2024-03-23T09:02:59;6.40;99.90
7461;DHT22;6757;52.258;12.840;2024-03-23T09:05:27;5.40;99.90
7461;DHT22;6757;52.258;12.840;2024-03-23T09:07:54;5.40;99.90
7461;DHT22;6757;52.258;12.840;2024-03-23T09:10:20;5.40;99.90
7461;DHT22;6757;52.258;12.840;2024-03-23T09:12:47;5.30;99.90
7461;DHT22;6757;52.258;12.840;2024-03-23T09:15:15;5.30;99.90
7461;DHT22;6757;52.258;12.840;2024-03-23T09:17:42;5.40;99.90
7461;DHT22;6757;52.258;12.840;2024-03-23T09:20:10;5.30;99.90
7461;DHT22;6757;52.258;12.840;2024-03-23T09:22:37;5.20;99.90
7461;DHT22;6757;52.258;12.840;2024-03-23T09:25:04;5.20;99.90
7461;DHT22;6757;52.258;12.840;2024-03-23T09:27:30;5.20;99.90
7461;DHT22;6757;52.258;12.840;2024-03-23T09:29:57;5.30;99.90
7461;DHT22;6757;52.258;12.840;2024-03-23T09:32:24;5.20;99.90
7461;DHT22;6757;52.258;12.840;2024-03-23T09:34:51;5.20;99.90
7461;DHT22;6757;52.258;12.840;2024-03-23T09:37:17;5.20;99.90
7461;DHT22;6757;52.258;12.840;2024-03-23T09:39:44;5.20;99.90
7461;DHT22;6757;52.258;12.840;2024-03-23T09:42:09;5.10;99.90
7461;DHT22;6757;52.258;12.840;2024-03-23T09:44:36;5.10;99.90
7461;DHT22;6757;52.258;12.840;2024-03-23T09:47:02;5.20;99.90
7461;DHT22;6757;52.258;12.840;2024-03-23T09:49:31;5.10;99.90
7461;DHT22;6757;52.258;12.840;2024-03-23T09:51:58;5.10;99.90
7461;DHT22;6757;52.258;12.840;2024-03-23T09:54:24;5.00;99.90
7461;DHT22;6757;52.258;12.840;2024-03-23T09:56:50;5.00;99.90
7461;DHT22;6757;52.258;12.840;2024-03-23T09:59:17;5.00;99.90
7461;DHT22;6757;52.258;12.840;2024-03-23T10:01:43;4.80;99.90
7461;DHT22;6757;52.258;12.840;2024-03-23T10:04:10;4.90;99.90
7461;DHT22;6757;52.258;12.840;2024-03-23T10:06:37;4.90;99.90
7461;DHT22;6757;52.258;12.840;2024-03-23T10:09:16;4.90;99.90
7461;DHT22;6757;52.258;12.840;2024-03-23T10:11:43;4.80;99.90
7461;DHT22;6757;52.258;12.840;2024-03-23T10:14:28;4.90;99.90
7461;DHT22;6757;52.258;12.840;2024-03-23T10:16:54;3.70;99.90
7461;DHT22;6757;52.258;12.840;2024-03-23T10:19:33;4.90;99.90
7461;DHT22;6757;52.258;12.840;2024-03-23T10:22:00;4.90;99.90
7461;DHT22;6757;52.258;12.840;2024-03-23T10:24:27;4.80;99.90
7461;DHT22;6757;52.258;12.840;2024-03-23T10:26:56;6.20;99.90
7461;DHT22;6757;52.258;12.840;2024-03-23T10:29:23;5.00;99.90
7461;DHT22;6757;52.258;12.840;2024-03-23T10:31:53;5.00;99.90
7461;DHT22;6757;52.258;12.840;2024-03-23T10:34:25;5.00;99.90
7461;DHT22;6757;52.258;12.840;2024-03-23T10:36:52;5.10;99.90
7461;DHT22;6757;52.258;12.840;2024-03-23T10:39:21;5.10;99.90
7461;DHT22;6757;52.258;12.840;2024-03-23T10:41:49;5.20;99.90
7461;DHT22;6757;52.258;12.840;2024-03-23T10:44:17;5.20;99.90
7461;DHT22;6757;52.258;12.840;2024-03-23T10:46:45;5.30;99.90
7461;DHT22;6757;52.258;12.840;2024-03-23T10:49:11;5.40;99.90
7461;DHT22;6757;52.258;12.840;2024-03-23T10:51:37;5.40;99.90
7461;DHT22;6757;52.258;12.840;2024-03-23T10:54:04;5.50;99.90
7461;DHT22;6757;52.258;12.840;2024-03-23T10:56:35;5.60;99.90
7461;DHT22;6757;52.258;12.840;2024-03-23T10:59:04;5.60;99.90
7461;DHT22;6757;52.258;12.840;2024-03-23T11:01:32;5.30;99.90
7461;DHT22;6757;52.258;12.840;2024-03-23T11:03:59;4.70;99.90
7461;DHT22;6757;52.258;12.840;2024-03-23T11:06:35;5.80;99.90
7461;DHT22;6757;52.258;12.840;2024-03-23T11:09:03;5.90;99.90
7461;DHT22;6757;52.258;12.840;2024-03-23T11:11:29;6.10;99.90
7461;DHT22;6757;52.258;12.840;2024-03-23T11:13:59;6.00;99.90
7461;DHT22;6757;52.258;12.840;2024-03-23T11:16:26;6.10;99.90
7461;DHT22;6757;52.258;12.840;2024-03-23T11:19:33;6.10;99.90
7461;DHT22;6757;52.258;12.840;2024-03-23T11:22:01;6.10;99.90
7461;DHT22;6757;52.258;12.840;2024-03-23T11:24:28;6.00;99.90
7461;DHT22;6757;52.258;12.840;2024-03-23T11:26:54;6.00;99.90
7461;DHT22;6757;52.258;12.840;2024-03-23T11:29:22;5.90;99.90
7461;DHT22;6757;52.258;12.840;2024-03-23T11:31:48;5.90;99.90
7461;DHT22;6757;52.258;12.840;2024-03-23T11:34:16;5.90;99.90
7461;DHT22;6757;52.258;12.840;2024-03-23T11:36:42;5.90;99.90
7461;DHT22;6757;52.258;12.840;2024-03-23T11:39:12;7.30;99.90
7461;DHT22;6757;52.258;12.840;2024-03-23T11:41:47;5.90;99.90
7461;DHT22;6757;52.258;12.840;2024-03-23T11:44:15;5.90;99.90
7461;DHT22;6757;52.258;12.840;2024-03-23T11:46:43;5.90;99.90
7461;DHT22;6757;52.258;12.840;2024-03-23T11:49:20;5.90;99.90
7461;DHT22;6757;52.258;12.840;2024-03-23T11:51:47;6.10;99.90
7461;DHT22;6757;52.258;12.840;2024-03-23T11:54:14;6.00;99.90
7461;DHT22;6757;52.258;12.840;2024-03-23T11:56:40;6.10;99.90
7461;DHT22;6757;52.258;12.840;2024-03-23T11:59:07;6.10;99.90
7461;DHT22;6757;52.258;12.840;2024-03-23T12:01:33;6.20;99.90
7461;DHT22;6757;52.258;12.840;2024-03-23T12:04:01;6.10;99.90
7461;DHT22;6757;52.258;12.840;2024-03-23T12:06:27;6.30;99.90
7461;DHT22;6757;52.258;12.840;2024-03-23T12:09:05;6.40;99.90
7461;DHT22;6757;52.258;12.840;2024-03-23T12:11:31;6.40;99.90
7461;DHT22;6757;52.258;12.840;2024-03-23T12:13:59;5.90;99.90
7461;DHT22;6757;52.258;12.840;2024-03-23T12:16:25;6.70;99.90
7461;DHT22;6757;52.258;12.840;2024-03-23T12:18:53;6.60;99.90
7461;DHT22;6757;52.258;12.840;2024-03-23T12:21:20;6.70;99.90
7461;DHT22;6757;52.258;12.840;2024-03-23T12:23:48;6.70;99.90
7461;DHT22;6757;52.258;12.840;2024-03-23T12:26:15;6.70;99.90
7461;DHT22;6757;52.258;12.840;2024-03-23T12:28:43;6.80;99.90
7461;DHT22;6757;52.258;12.840;2024-03-23T12:31:09;6.80;99.90
7461;DHT22;6757;52.258;12.840;2024-03-23T12:33:36;6.80;99.90
7461;DHT22;6757;52.258;12.840;2024-03-23T12:36:03;7.70;99.90
7461;DHT22;6757;52.258;12.840;2024-03-23T12:38:32;6.80;99.90
7461;DHT22;6757;52.258;12.840;2024-03-23T12:40:57;6.90;99.90
7461;DHT22;6757;52.258;12.840;2024-03-23T12:43:26;7.00;99.90
7461;DHT22;6757;52.258;12.840;2024-03-23T12:45:51;7.10;99.90
7461;DHT22;6757;52.258;12.840;2024-03-23T12:48:18;7.30;99.90
7461;DHT22;6757;52.258;12.840;2024-03-23T12:50:44;7.50;99.90
7461;DHT22;6757;52.258;12.840;2024-03-23T12:53:10;7.70;99.90
7461;DHT22;6757;52.258;12.840;2024-03-23T12:55:37;7.90;99.90
7461;DHT22;6757;52.258;12.840;2024-03-23T12:58:04;7.90;99.90
7461;DHT22;6757;52.258;12.840;2024-03-23T13:00:30;8.00;99.90
7461;DHT22;6757;52.258;12.840;2024-03-23T13:02:56;8.00;99.90
7461;DHT22;6757;52.258;12.840;2024-03-23T13:05:22;8.00;99.90
7461;DHT22;6757;52.258;12.840;2024-03-23T13:07:49;7.70;99.90
7461;DHT22;6757;52.258;12.840;2024-03-23T13:10:14;8.20;99.90
7461;DHT22;6757;52.258;12.840;2024-03-23T13:12:43;8.20;99.90
7461;DHT22;6757;52.258;12.840;2024-03-23T13:15:09;8.20;99.90
7461;DHT22;6757;52.258;12.840;2024-03-23T13:17:35;8.30;99.90
7461;DHT22;6757;52.258;12.840;2024-03-23T13:20:02;8.60;99.90
7461;DHT22;6757;52.258;12.840;2024-03-23T13:22:29;8.90;99.90
7461;DHT22;6757;52.258;12.840;2024-03-23T13:24:55;9.20;99.90
7461;DHT22;6757;52.258;12.840;2024-03-23T13:27:22;9.60;99.90
7461;DHT22;6757;52.258;12.840;2024-03-23T13:29:49;10.10;99.90
7461;DHT22;6757;52.258;12.840;2024-03-23T13:32:16;10.30;99.90
7461;DHT22;6757;52.258;12.840;2024-03-23T13:34:41;10.60;99.90
7461;DHT22;6757;52.258;12.840;2024-03-23T13:37:08;10.70;99.90
7461;DHT22;6757;52.258;12.840;2024-03-23T13:39:35;10.70;99.90
7461;DHT22;6757;52.258;12.840;2024-03-23T13:42:01;11.10;99.90
7461;DHT22;6757;52.258;12.840;2024-03-23T13:44:28;12.40;99.90
7461;DHT22;6757;52.258;12.840;2024-03-23T13:46:56;11.60;99.90
7461;DHT22;6757;52.258;12.840;2024-03-23T13:49:27;11.70;99.90
7461;DHT22;6757;52.258;12.840;2024-03-23T13:51:55;11.80;99.90
7461;DHT22;6757;52.258;12.840;2024-03-23T13:54:22;12.10;99.90
7461;DHT22;6757;52.258;12.840;2024-03-23T13:56:49;12.00;99.90
7461;DHT22;6757;52.258;12.840;2024-03-23T13:59:15;12.00;99.90
7461;DHT22;6757;52.258;12.840;2024-03-23T14:01:42;12.20;99.90
7461;DHT22;6757;52.258;12.840;2024-03-23T14:04:09;12.20;99.90
7461;DHT22;6757;52.258;12.840;2024-03-23T14:06:36;12.80;99.90
7461;DHT22;6757;52.258;12.840;2024-03-23T14:09:02;13.00;99.90
7461;DHT22;6757;52.258;12.840;2024-03-23T14:11:30;13.10;99.90
7461;DHT22;6757;52.258;12.840;2024-03-23T14:13:56;13.00;99.90
7461;DHT22;6757;52.258;12.840;2024-03-23T14:16:23;12.70;99.90
7461;DHT22;6757;52.258;12.840;2024-03-23T14:18:48;11.70;99.90
7461;DHT22;6757;52.258;12.840;2024-03-23T14:21:16;11.70;99.90
7461;DHT22;6757;52.258;12.840;2024-03-23T14:23:42;10.70;99.90
7461;DHT22;6757;52.258;12.840;2024-03-23T14:26:09;10.10;99.90
7461;DHT22;6757;52.258;12.840;2024-03-23T14:28:34;9.30;99.90
7461;DHT22;6757;52.258;12.840;2024-03-23T14:31:01;8.90;99.90
7461;DHT22;6757;52.258;12.840;2024-03-23T14:33:28;8.50;99.90
7461;DHT22;6757;52.258;12.840;2024-03-23T14:35:55;8.20;99.90
7461;DHT22;6757;52.258;12.840;2024-03-23T14:38:23;8.10;99.90
7461;DHT22;6757;52.258;12.840;2024-03-23T14:40:50;8.30;99.90
7461;DHT22;6757;52.258;12.840;2024-03-23T14:43:18;8.50;99.90
7461;DHT22;6757;52.258;12.840;2024-03-23T14:46:06;9.60;99.90
7461;DHT22;6757;52.258;12.840;2024-03-23T14:48:32;8.50;99.90
7461;DHT22;6757;52.258;12.840;2024-03-23T14:51:00;8.40;99.90
7461;DHT22;6757;52.258;12.840;2024-03-23T14:53:27;8.20;99.90
7461;DHT22;6757;52.258;12.840;2024-03-23T14:55:55;8.00;99.90
7461;DHT22;6757;52.258;12.840;2024-03-23T14:58:21;7.70;99.90
7461;DHT22;6757;52.258;12.840;2024-03-23T15:00:48;8.40;99.90
7461;DHT22;6757;52.258;12.840;2024-03-23T15:03:14;7.50;99.90
7461;DHT22;6757;52.258;12.840;2024-03-23T15:05:41;7.40;99.90
7461;DHT22;6757;52.258;12.840;2024-03-23T15:08:07;7.30;99.90
7461;DHT22;6757;52.258;12.840;2024-03-23T15:10:35;7.20;99.90
7461;DHT22;6757;52.258;12.840;2024-03-23T15:13:00;7.20;99.90
7461;DHT22;6757;52.258;12.840;2024-03-23T15:15:27;7.00;99.90
7461;DHT22;6757;52.258;12.840;2024-03-23T15:17:53;7.10;99.90
7461;DHT22;6757;52.258;12.840;2024-03-23T15:22:46;8.00;99.90
7461;DHT22;6757;52.258;12.840;2024-03-23T15:25:12;8.60;99.90
7461;DHT22;6757;52.258;12.840;2024-03-23T15:27:40;9.30;99.90
7461;DHT22;6757;52.258;12.840;2024-03-23T15:30:07;9.90;99.90
7461;DHT22;6757;52.258;12.840;2024-03-23T15:32:34;10.40;99.90
7461;DHT22;6757;52.258;12.840;2024-03-23T15:35:00;10.70;99.90
7461;DHT22;6757;52.258;12.840;2024-03-23T15:37:26;11.00;99.90
7461;DHT22;6757;52.258;12.840;2024-03-23T15:39:53;11.20;99.90
7461;DHT22;6757;52.258;12.840;2024-03-23T15:42:18;11.60;99.90
7461;DHT22;6757;52.258;12.840;2024-03-23T15:44:46;12.50;99.90
7461;DHT22;6757;52.258;12.840;2024-03-23T15:47:12;11.90;99.90
7461;DHT22;6757;52.258;12.840;2024-03-23T15:49:39;12.00;99.90
7461;DHT22;6757;52.258;12.840;2024-03-23T15:52:06;12.10;99.90
7461;DHT22;6757;52.258;12.840;2024-03-23T15:54:33;12.10;99.90
7461;DHT22;6757;52.258;12.840;2024-03-23T15:56:59;11.90;99.90
7461;DHT22;6757;52.258;12.840;2024-03-23T15:59:26;11.80;99.90
7461;DHT22;6757;52.258;12.840;2024-03-23T16:01:53;12.60;99.90
7461;DHT22;6757;52.258;12.840;2024-03-23T16:04:20;11.40;99.90
7461;DHT22;6757;52.258;12.840;2024-03-23T16:06:46;11.30;99.90
7461;DHT22;6757;52.258;12.840;2024-03-23T16:09:13;11.20;99.90
7461;DHT22;6757;52.258;12.840;2024-03-23T16:11:39;11.10;99.90
7461;DHT22;6757;52.258;12.840;2024-03-23T16:14:06;10.80;99.90
7461;DHT22;6757;52.258;12.840;2024-03-23T16:16:31;10.50;99.90
7461;DHT22;6757;52.258;12.840;2024-03-23T16:18:59;10.10;99.90
7461;DHT22;6757;52.258;12.840;2024-03-23T16:21:25;9.70;99.90
7461;DHT22;6757;52.258;12.840;2024-03-23T16:23:52;9.30;99.90
7461;DHT22;6757;52.258;12.840;2024-03-23T16:26:18;9.00;99.90
7461;DHT22;6757;52.258;12.840;2024-03-23T16:28:45;8.40;99.90
7461;DHT22;6757;52.258;12.840;2024-03-23T16:31:13;9.20;99.90
7461;DHT22;6757;52.258;12.840;2024-03-23T16:33:41;9.40;99.90
7461;DHT22;6757;52.258;12.840;2024-03-23T16:36:09;8.00;99.90
7461;DHT22;6757;52.258;12.840;2024-03-23T16:38:38;7.90;99.90
7461;DHT22;6757;52.258;12.840;2024-03-23T16:41:05;7.80;99.90
7461;DHT22;6757;52.258;12.840;2024-03-23T16:43:33;7.70;99.90
7461;DHT22;6757;52.258;12.840;2024-03-23T16:46:01;7.60;99.90
7461;DHT22;6757;52.258;12.840;2024-03-23T16:48:29;7.60;99.90
7461;DHT22;6757;52.258;12.840;2024-03-23T16:50:57;7.50;99.90
7461;DHT22;6757;52.258;12.840;2024-03-23T16:53:26;7.40;99.90
7461;DHT22;6757;52.258;12.840;2024-03-23T16:55:56;7.30;99.90